Latest Weather Observations for Trepell

IDQ60801

Issued at 10:35 pm EST Saturday 26 July 2014 (issued every 30 minutes, with the page automatically refreshed every 10 minutes)

About weather observations | Map of weather stations | Latest weather observations for QLD | Other Formats
Station Details ID: 037036 Name: TREPELL AIRPORT Lat: -21.84 Lon: 140.89 Height: 266.2 m
Data from the previous 72 hours. | See also: Recent months at Trepell
Date/Time
EST
Temp
°C
App
Temp
°C
Dew
Point
Rel
Hum
%
Delta-T
°C
Wind Press
QNH
hPa
Press
MSL
hPa
Rain
since 9 am
mm
Dir
 
Spd
km/h
Gust
km/h
Spd
kts
Gust
kts
26/10:30pm 16.6 11.5 -2.0 28 7.7 SW 15 17 8 9 1024.2 - 0.0
26/10:00pm 16.5 11.8 -2.0 28 7.7 SSW 13 15 7 8 1024.2 - 0.0
26/09:30pm 17.7 13.0 -2.0 26 8.3 S 13 15 7 8 1024.2 - 0.0
26/09:00pm 19.2 14.6 -1.3 25 8.8 S 13 15 7 8 1024.1 1023.6 0.0
26/08:30pm 20.2 15.6 -1.0 24 9.3 S 13 17 7 9 1023.8 - 0.0
26/08:00pm 21.1 16.2 -0.8 23 9.7 S 15 20 8 11 1023.6 - 0.0
26/07:30pm 22.1 16.4 -0.6 22 10.2 S 19 22 10 12 1023.2 - 0.0
26/07:00pm 22.9 17.0 -0.6 21 10.7 SSE 20 26 11 14 1022.8 - 0.0
26/06:30pm 23.7 17.5 -0.6 20 11.1 SSE 22 28 12 15 1022.5 - 0.0
26/06:00pm 24.7 17.7 -0.4 19 11.5 SSE 26 32 14 17 1022.2 1021.8 0.0
26/05:30pm 26.0 19.7 -0.9 17 12.4 SSE 22 33 12 18 1022.0 - 0.0
26/05:00pm 26.4 19.3 -1.4 16 12.8 S 26 32 14 17 1022.0 - 0.0
26/04:30pm 26.6 20.0 -0.4 17 12.6 S 24 33 13 18 1021.8 - 0.0
26/04:00pm 27.1 20.6 0.0 17 12.8 SSE 24 33 13 18 1021.8 - 0.0
26/03:30pm 27.3 21.0 1.7 19 12.5 S 24 32 13 17 1021.7 - 0.0
26/03:00pm 26.8 20.6 2.0 20 12.1 S 24 32 13 17 1021.8 1021.4 0.0
26/02:30pm 25.9 19.7 1.9 21 11.7 S 24 33 13 18 1022.0 - 0.0
26/02:00pm 26.9 21.0 4.0 23 11.6 SSE 24 33 13 18 1022.2 - 0.0
26/01:30pm 25.9 19.5 3.2 23 11.3 S 26 35 14 19 1022.6 - 0.0
26/01:00pm 26.0 20.0 3.3 23 11.3 SSE 24 33 13 18 1023.1 - 0.0
26/12:30pm 24.5 18.0 2.6 24 10.7 SSE 26 39 14 21 1023.7 - 0.0
26/12:00pm 23.7 17.6 2.5 25 10.2 S 24 32 13 17 1024.3 1023.9 0.0
26/11:30am 22.8 16.2 1.8 25 10.0 SSE 26 35 14 19 1024.8 - 0.0
26/11:00am 22.1 15.8 1.7 26 9.6 SSE 24 33 13 18 1025.3 - 0.0
26/10:30am 21.5 15.1 1.2 26 9.4 SSE 24 28 13 15 1025.6 - 0.0
26/10:00am 19.5 14.0 0.5 28 8.6 S 19 28 10 15 1025.5 - 0.0
26/09:30am 17.7 11.9 -0.1 30 7.8 S 20 24 11 13 1025.4 - 0.0
26/09:00am 16.6 10.4 -0.6 31 7.3 SSW 22 28 12 15 1025.2 1024.8 0.0
26/08:30am 15.6 10.7 -0.6 33 6.9 SSW 15 20 8 11 1024.9 - 0.0
26/08:00am 13.9 8.6 -0.9 36 6.2 SW 17 20 9 11 1024.6 - 0.0
26/07:30am 12.8 7.9 -0.8 39 5.6 SW 15 17 8 9 1024.1 - 0.0
26/07:00am 12.4 8.2 -1.1 39 5.5 SW 11 13 6 7 1023.8 - 0.0
26/06:30am 12.5 8.2 -1.4 38 5.6 SW 11 13 6 7 1023.5 - 0.0
26/06:00am 12.6 8.0 -1.3 38 5.6 SW 13 15 7 8 1023.2 1022.8 0.0
26/05:30am 12.8 8.5 -1.5 37 5.8 SW 11 13 6 7 1023.0 - 0.0
26/05:00am 14.1 9.2 -0.7 36 6.2 SSW 15 17 8 9 1022.9 - 0.0
26/04:30am 14.2 10.4 -1.0 35 6.3 SSW 9 13 5 7 1022.6 - 0.0
26/04:00am 14.7 10.4 -1.4 33 6.7 SW 11 13 6 7 1022.5 - 0.0
26/03:30am 15.2 10.6 -1.4 32 6.9 SW 13 15 7 8 1022.4 - 0.0
26/03:00am 15.5 11.3 -1.1 32 7.0 SW 11 13 6 7 1022.4 1022.0 0.0
26/02:30am 16.2 12.3 -1.4 30 7.4 SSW 9 11 5 6 1022.4 - 0.0
26/02:00am 16.4 12.2 -0.8 31 7.3 SW 11 13 6 7 1022.4 - 0.0
26/01:30am 15.9 12.0 -1.2 31 7.2 SW 9 11 5 6 1022.5 - 0.0
26/01:00am 15.8 11.5 -1.7 30 7.3 SW 11 13 6 7 1022.3 - 0.0
26/12:30am 16.1 11.4 -1.9 29 7.5 SW 13 15 7 8 1022.4 - 0.0
26/12:00am 16.9 13.0 -1.7 28 7.8 SW 9 11 5 6 1022.4 1022.0 0.0
 
Date/Time
EST
Temp
°C
App
Temp
°C
Dew
Point
Rel
Hum
%
Delta-T
°C
Wind Press
QNH
hPa
Press
MSL
hPa
Rain
since 9 am
mm
Dir
 
Spd
km/h
Gust
km/h
Spd
kts
Gust
kts
25/11:30pm 17.0 12.6 -2.1 27 8.0 SW 11 13 6 7 1022.4 - 0.0
25/11:00pm 17.4 13.0 -2.3 26 8.2 SW 11 13 6 7 1022.3 - 0.0
25/10:30pm 18.0 14.0 -2.3 25 8.5 SSW 9 13 5 7 1022.1 - 0.0
25/10:00pm 19.5 15.2 -1.6 24 9.1 S 11 13 6 7 1021.8 - 0.0
25/09:30pm 20.7 15.7 -1.2 23 9.6 SSW 15 17 8 9 1021.5 - 0.0
25/09:00pm 21.9 17.2 1.0 25 9.7 SSW 15 17 8 9 1021.2 1020.8 0.0
25/08:30pm 22.3 17.8 1.9 26 9.7 SSW 15 19 8 10 1020.9 - 0.0
25/08:00pm 22.4 19.7 3.5 29 9.2 SE 7 9 4 5 1020.4 - 0.0
25/07:30pm 23.7 20.7 4.1 28 9.8 SSE 9 11 5 6 1019.9 - 0.0
25/07:00pm 24.2 21.7 4.6 28 9.9 SE 7 9 4 5 1019.5 - 0.0
25/06:30pm 25.2 22.6 4.3 26 10.6 SE 7 9 4 5 1019.1 - 0.0
25/06:00pm 26.3 23.6 3.5 23 11.4 SE 7 9 4 5 1018.9 1018.5 0.0
25/05:30pm 27.3 24.4 4.4 23 11.7 E 9 13 5 7 1018.6 - 0.0
25/05:00pm 27.6 24.6 4.0 22 12.0 S 9 13 5 7 1018.3 - 0.0
25/04:30pm 27.7 25.6 4.1 22 12.1 ESE 4 9 2 5 1018.2 - 0.0
25/04:00pm 28.6 25.6 4.2 21 12.6 WNW 9 13 5 7 1018.1 - 0.0
25/03:30pm 28.2 25.1 3.8 21 12.5 WNW 9 17 5 9 1018.1 - 0.0
25/03:00pm 28.5 25.9 4.1 21 12.5 W 7 11 4 6 1018.2 1017.8 0.0
25/02:30pm 28.5 24.8 4.7 22 12.4 NW 13 22 7 12 1018.4 - 0.0
25/02:00pm 27.7 24.5 5.3 24 11.7 N 11 20 6 11 1018.6 - 0.0
25/01:30pm 27.5 24.4 5.7 25 11.4 NE 11 19 6 10 1019.0 - 0.0
25/01:00pm 27.1 24.7 5.4 25 11.3 NE 7 19 4 10 1019.4 - 0.0
25/12:30pm 26.1 23.0 5.7 27 10.6 NNW 11 17 6 9 1020.1 - 0.0
25/12:00pm 25.7 23.0 5.8 28 10.3 NNW 9 17 5 9 1020.5 1020.0 0.0
25/11:30am 24.6 21.9 5.4 29 9.9 NNE 9 13 5 7 1021.0 - 0.0
25/11:00am 24.1 20.1 5.0 29 9.7 NNE 15 20 8 11 1021.3 - 0.0
25/10:30am 23.3 18.8 4.3 29 9.5 NNE 17 20 9 11 1021.4 - 0.0
25/10:00am 22.4 18.1 3.5 29 9.2 NNE 15 20 8 11 1021.3 - 0.0
25/09:30am 20.9 16.7 3.6 32 8.4 N 15 19 8 10 1021.0 - 0.0
25/09:00am 19.7 15.2 2.1 31 8.2 NE 15 19 8 10 1020.7 1020.2 0.0
25/08:30am 17.9 14.1 -0.8 28 8.1 NE 9 13 5 7 1020.3 - 0.0
25/08:00am 14.7 11.0 -2.7 30 7.0 NW 7 9 4 5 1019.5 - 0.0
25/07:30am 13.2 9.1 -2.7 33 6.3 WNW 9 11 5 6 1019.3 - 0.0
25/07:00am 13.4 9.4 -2.5 33 6.4 WNW 9 9 5 5 1018.9 - 0.0
25/06:30am 13.1 9.3 -3.6 31 6.5 WNW 7 9 4 5 1018.6 - 0.0
25/06:00am 13.4 8.8 -3.8 30 6.7 W 11 11 6 6 1018.3 1017.9 0.0
25/05:30am 13.3 8.7 -4.3 29 6.7 W 11 13 6 7 1018.0 - 0.0
25/05:00am 13.2 8.7 -3.5 31 6.5 W 11 13 6 7 1017.8 - 0.0
25/04:30am 12.3 8.0 -4.8 30 6.4 WSW 9 11 5 6 1017.6 - 0.0
25/04:00am 12.9 9.0 -4.7 29 6.7 SW 7 9 4 5 1017.6 - 0.0
25/03:30am 13.1 10.4 -5.9 26 7.0 CALM 0 0 0 0 1017.6 - 0.0
25/03:00am 13.0 10.2 -7.1 24 7.2 CALM 0 0 0 0 1017.6 1017.1 0.0
25/02:30am 13.2 10.4 -7.4 23 7.4 CALM 0 0 0 0 1017.5 - 0.0
25/02:00am 12.8 9.9 -7.8 23 7.3 CALM 0 6 0 3 1017.7 - 0.0
25/01:30am 13.1 10.2 -7.5 23 7.3 CALM 0 4 0 2 1017.6 - 0.0
25/01:00am 14.2 10.1 -6.6 23 7.7 SSE 7 9 4 5 1017.6 - 0.0
25/12:30am 14.6 9.8 -5.7 24 7.7 S 11 13 6 7 1017.6 - 0.0
25/12:00am 14.4 10.5 -6.4 23 7.7 WNW 6 13 3 7 1017.7 1017.3 0.0
 
Date/Time
EST
Temp
°C
App
Temp
°C
Dew
Point
Rel
Hum
%
Delta-T
°C
Wind Press
QNH
hPa
Press
MSL
hPa
Rain
since 9 am
mm
Dir
 
Spd
km/h
Gust
km/h
Spd
kts
Gust
kts
24/11:30pm 17.3 13.6 -2.9 25 8.3 N 7 11 4 6 1017.6 - 0.0
24/11:00pm 18.0 14.2 -3.4 23 8.8 N 7 9 4 5 1017.5 - 0.0
24/10:30pm 18.9 14.8 -2.7 23 9.1 N 9 11 5 6 1017.4 - 0.0
24/10:00pm 19.7 15.1 -3.9 20 9.7 N 11 13 6 7 1017.3 - 0.0
24/09:30pm 20.1 15.6 -3.5 20 9.9 N 11 17 6 9 1017.1 - 0.0
24/09:00pm 19.7 14.7 -4.5 19 9.9 NNE 13 15 7 8 1016.8 1016.3 0.0
24/08:30pm 18.5 13.3 -6.2 18 9.6 NNE 13 15 7 8 1016.6 - 0.0
24/08:00pm 20.2 15.7 -6.4 16 10.5 ENE 9 13 5 7 1016.3 - 0.0
24/07:30pm 22.9 17.3 -6.0 14 11.8 NNE 15 19 8 10 1015.7 - 0.0
24/07:00pm 23.2 17.6 -6.7 13 12.1 NNE 15 17 8 9 1015.2 - 0.0
24/06:30pm 24.7 18.7 -6.6 12 12.9 NNE 17 19 9 10 1014.8 - 0.0
24/06:00pm 26.5 20.9 -6.3 11 13.8 NNE 15 19 8 10 1014.5 1014.1 0.0
24/05:30pm 28.4 23.6 -6.1 10 14.8 N 11 17 6 9 1014.2 - 0.0
24/05:00pm 29.2 22.7 -8.4 8 15.6 NW 19 22 10 12 1014.0 - 0.0
24/04:30pm 29.3 24.9 -5.4 10 15.2 N 9 15 5 8 1014.0 - 0.0
24/04:00pm 30.0 25.2 -6.3 9 15.7 NNE 11 20 6 11 1013.8 - 0.0
24/03:30pm 29.6 24.5 -5.2 10 15.3 NNE 13 19 7 10 1013.9 - 0.0
24/03:00pm 29.4 23.5 -5.4 10 15.2 N 17 28 9 15 1014.0 1013.5 0.0
24/02:30pm 29.7 23.1 -6.5 9 15.6 NNW 20 30 11 16 1014.0 - 0.0
24/02:00pm 29.2 24.5 -5.5 10 15.1 NNW 11 20 6 11 1014.2 - 0.0
24/01:30pm 29.0 23.1 -5.7 10 15.1 NE 17 26 9 14 1014.6 - 0.0
24/01:00pm 28.9 22.7 -4.5 11 14.8 NNE 19 26 10 14 1015.0 - 0.0
24/12:30pm 28.2 22.0 -5.0 11 14.5 NE 19 26 10 14 1015.7 - 0.0
24/12:00pm 27.3 22.0 -3.5 13 13.7 NNE 15 20 8 11 1016.4 1015.9 0.0
24/11:30am 25.5 20.2 -3.9 14 12.8 NNE 15 22 8 12 1016.7 - 0.0
24/11:00am 24.4 18.5 -2.2 17 11.8 NNE 19 20 10 11 1017.1 - 0.0
24/10:30am 22.7 16.5 -2.8 18 11.1 NNE 20 26 11 14 1017.1 - 0.0
24/10:00am 21.7 15.5 -2.9 19 10.6 NNE 20 26 11 14 1017.1 - 0.0
24/09:30am 20.8 14.2 -3.0 20 10.1 NNE 22 28 12 15 1016.9 - 0.0
24/09:00am 18.5 13.6 -3.6 22 9.1 NNE 13 20 7 11 1016.7 1016.2 0.0
24/08:30am 15.7 11.8 -4.8 24 8.0 NNW 7 7 4 4 1016.3 - 0.0
24/08:00am 12.9 7.8 -5.6 27 6.9 NNW 13 15 7 8 1015.8 - 0.0
24/07:30am 11.0 5.4 -6.8 28 6.3 NNW 15 19 8 10 1015.4 - 0.0
24/07:00am 10.1 4.7 -8.0 27 6.1 N 13 15 7 8 1015.1 - 0.0
24/06:30am 10.3 5.6 -8.8 25 6.4 N 9 11 5 6 1015.0 - 0.0
24/06:00am 11.4 7.1 -8.4 24 6.8 N 7 11 4 6 1014.6 1014.2 0.0
24/05:30am 10.7 6.3 -9.6 23 6.7 N 7 9 4 5 1014.4 - 0.0
24/05:00am 11.7 7.6 -8.7 23 6.9 N 6 7 3 4 1014.3 - 0.0
24/04:30am 11.0 5.9 -8.8 24 6.7 N 11 15 6 8 1014.3 - 0.0
24/04:00am 11.9 8.9 -9.1 22 7.1 CALM 0 0 0 0 1014.4 - 0.0
24/03:30am 12.0 7.6 -9.6 21 7.2 NNW 7 9 4 5 1014.6 - 0.0
24/03:00am 11.4 6.7 -9.5 22 6.9 NNW 9 9 5 5 1014.7 1014.3 0.0
24/02:30am 12.5 8.1 -10.5 19 7.6 W 7 9 4 5 1014.9 - 0.0
24/02:00am 12.3 8.1 -10.0 20 7.4 WSW 6 7 3 4 1014.9 - 0.0
24/01:30am 13.0 8.7 -9.4 20 7.6 WSW 7 9 4 5 1015.1 - 0.0
24/01:00am 12.0 7.2 -10.2 20 7.3 WSW 9 11 5 6 1015.1 - 0.0
24/12:30am 12.1 7.7 -10.1 20 7.4 SW 7 9 4 5 1015.1 - 0.0
24/12:00am 13.2 10.2 -9.9 19 7.8 CALM 0 0 0 0 1015.3 1014.9 0.0
 
Date/Time
EST
Temp
°C
App
Temp
°C
Dew
Point
Rel
Hum
%
Delta-T
°C
Wind Press
QNH
hPa
Press
MSL
hPa
Rain
since 9 am
mm
Dir
 
Spd
km/h
Gust
km/h
Spd
kts
Gust
kts
23/11:30pm 13.6 9.5 -8.9 20 7.8 NE 6 9 3 5 1015.4 - 0.0
23/11:00pm 13.9 10.3 -7.4 22 7.7 E 4 11 2 6 1015.6 - 0.0

Other Formats:

Comma delimited format used in spreadsheet applications
http://www.bom.gov.au/fwo/IDQ60801/IDQ60801.94338.axf

JavaScript Object Notation format (JSON) in row-major order
http://www.bom.gov.au/fwo/IDQ60801/IDQ60801.94338.json